sensor_id;sensor_type;location;lat;lon;timestamp;temperature;humidity
42135;DHT22;28312;43.460;11.810;2023-05-29T00:03:28;15.30;57.70
42135;DHT22;28312;43.460;11.810;2023-05-29T00:07:36;15.20;57.70
42135;DHT22;28312;43.460;11.810;2023-05-29T00:11:39;15.10;58.00
42135;DHT22;28312;43.460;11.810;2023-05-29T00:15:44;15.10;58.00
42135;DHT22;28312;43.460;11.810;2023-05-29T00:19:47;15.00;58.20
42135;DHT22;28312;43.460;11.810;2023-05-29T00:23:51;14.90;58.20
42135;DHT22;28312;43.460;11.810;2023-05-29T00:27:55;14.80;58.30
42135;DHT22;28312;43.460;11.810;2023-05-29T00:32:00;14.70;58.30
42135;DHT22;28312;43.460;11.810;2023-05-29T00:36:04;14.70;58.30
42135;DHT22;28312;43.460;11.810;2023-05-29T00:40:10;14.70;58.40
42135;DHT22;28312;43.460;11.810;2023-05-29T00:44:17;14.60;58.40
42135;DHT22;28312;43.460;11.810;2023-05-29T00:48:22;14.50;58.50
42135;DHT22;28312;43.460;11.810;2023-05-29T00:52:26;14.40;58.60
42135;DHT22;28312;43.460;11.810;2023-05-29T00:56:30;14.40;58.70
42135;DHT22;28312;43.460;11.810;2023-05-29T01:00:34;14.40;58.70
42135;DHT22;28312;43.460;11.810;2023-05-29T01:04:39;14.40;58.60
42135;DHT22;28312;43.460;11.810;2023-05-29T01:08:43;14.30;58.70
42135;DHT22;28312;43.460;11.810;2023-05-29T01:13:09;14.30;58.80
42135;DHT22;28312;43.460;11.810;2023-05-29T01:17:24;14.20;59.00
42135;DHT22;28312;43.460;11.810;2023-05-29T01:30:35;14.10;59.20
42135;DHT22;28312;43.460;11.810;2023-05-29T01:34:39;14.00;59.30
42135;DHT22;28312;43.460;11.810;2023-05-29T01:38:43;14.00;59.40
42135;DHT22;28312;43.460;11.810;2023-05-29T01:42:47;14.00;59.40
42135;DHT22;28312;43.460;11.810;2023-05-29T01:46:51;13.90;59.60
42135;DHT22;28312;43.460;11.810;2023-05-29T01:50:55;13.90;59.70
42135;DHT22;28312;43.460;11.810;2023-05-29T01:55:00;13.90;59.80
42135;DHT22;28312;43.460;11.810;2023-05-29T01:59:03;13.90;59.80
42135;DHT22;28312;43.460;11.810;2023-05-29T02:03:07;13.90;59.80
42135;DHT22;28312;43.460;11.810;2023-05-29T02:07:13;13.90;59.80
42135;DHT22;28312;43.460;11.810;2023-05-29T02:11:19;13.80;60.00
42135;DHT22;28312;43.460;11.810;2023-05-29T02:15:23;13.80;60.00
42135;DHT22;28312;43.460;11.810;2023-05-29T02:19:27;13.80;60.00
42135;DHT22;28312;43.460;11.810;2023-05-29T02:23:30;13.70;60.10
42135;DHT22;28312;43.460;11.810;2023-05-29T02:27:34;13.70;60.10
42135;DHT22;28312;43.460;11.810;2023-05-29T02:31:37;13.70;60.30
42135;DHT22;28312;43.460;11.810;2023-05-29T02:35:43;13.70;60.30
42135;DHT22;28312;43.460;11.810;2023-05-29T02:39:47;13.70;60.20
42135;DHT22;28312;43.460;11.810;2023-05-29T02:43:50;13.60;60.30
42135;DHT22;28312;43.460;11.810;2023-05-29T02:47:56;13.60;60.40
42135;DHT22;28312;43.460;11.810;2023-05-29T02:52:02;13.50;60.50
42135;DHT22;28312;43.460;11.810;2023-05-29T02:56:07;13.50;60.60
42135;DHT22;28312;43.460;11.810;2023-05-29T03:00:12;13.40;60.70
42135;DHT22;28312;43.460;11.810;2023-05-29T03:04:18;13.40;60.80
42135;DHT22;28312;43.460;11.810;2023-05-29T03:08:21;13.40;60.80
42135;DHT22;28312;43.460;11.810;2023-05-29T03:12:24;13.40;60.90
42135;DHT22;28312;43.460;11.810;2023-05-29T03:16:29;13.40;60.90
42135;DHT22;28312;43.460;11.810;2023-05-29T03:20:33;13.30;60.90
42135;DHT22;28312;43.460;11.810;2023-05-29T03:24:37;13.20;60.90
42135;DHT22;28312;43.460;11.810;2023-05-29T03:28:41;13.20;61.00
42135;DHT22;28312;43.460;11.810;2023-05-29T03:32:45;13.20;61.00
42135;DHT22;28312;43.460;11.810;2023-05-29T03:36:49;13.20;61.00
42135;DHT22;28312;43.460;11.810;2023-05-29T03:40:53;13.10;60.90
42135;DHT22;28312;43.460;11.810;2023-05-29T03:44:57;13.00;61.10
42135;DHT22;28312;43.460;11.810;2023-05-29T03:49:01;13.00;61.30
42135;DHT22;28312;43.460;11.810;2023-05-29T03:53:06;12.90;61.40
42135;DHT22;28312;43.460;11.810;2023-05-29T03:57:10;12.90;61.50
42135;DHT22;28312;43.460;11.810;2023-05-29T04:01:13;13.00;61.50
42135;DHT22;28312;43.460;11.810;2023-05-29T04:05:16;13.00;61.50
42135;DHT22;28312;43.460;11.810;2023-05-29T04:09:21;13.00;61.60
42135;DHT22;28312;43.460;11.810;2023-05-29T04:13:24;13.00;61.80
42135;DHT22;28312;43.460;11.810;2023-05-29T04:17:28;13.00;61.90
42135;DHT22;28312;43.460;11.810;2023-05-29T04:21:31;13.10;61.90
42135;DHT22;28312;43.460;11.810;2023-05-29T04:25:40;13.10;62.00
42135;DHT22;28312;43.460;11.810;2023-05-29T04:29:44;13.20;62.00
42135;DHT22;28312;43.460;11.810;2023-05-29T04:33:48;13.20;62.10
42135;DHT22;28312;43.460;11.810;2023-05-29T04:37:52;13.30;62.20
42135;DHT22;28312;43.460;11.810;2023-05-29T04:41:58;13.40;62.30
42135;DHT22;28312;43.460;11.810;2023-05-29T04:46:05;13.50;62.40
42135;DHT22;28312;43.460;11.810;2023-05-29T04:50:14;13.60;62.50
42135;DHT22;28312;43.460;11.810;2023-05-29T04:54:19;13.70;62.60
42135;DHT22;28312;43.460;11.810;2023-05-29T04:58:27;13.90;62.70
42135;DHT22;28312;43.460;11.810;2023-05-29T05:02:30;14.10;62.70
42135;DHT22;28312;43.460;11.810;2023-05-29T05:06:35;14.30;62.70
42135;DHT22;28312;43.460;11.810;2023-05-29T05:10:38;14.50;62.80
42135;DHT22;28312;43.460;11.810;2023-05-29T05:14:43;14.70;62.80
42135;DHT22;28312;43.460;11.810;2023-05-29T05:18:47;14.90;62.90
42135;DHT22;28312;43.460;11.810;2023-05-29T05:22:52;15.20;62.90
42135;DHT22;28312;43.460;11.810;2023-05-29T05:26:55;15.40;62.80
42135;DHT22;28312;43.460;11.810;2023-05-29T05:30:59;15.70;62.90
42135;DHT22;28312;43.460;11.810;2023-05-29T05:35:04;16.00;62.90
42135;DHT22;28312;43.460;11.810;2023-05-29T05:39:08;16.30;63.00
42135;DHT22;28312;43.460;11.810;2023-05-29T05:43:13;16.60;62.90
42135;DHT22;28312;43.460;11.810;2023-05-29T05:47:39;17.00;62.80
42135;DHT22;28312;43.460;11.810;2023-05-29T05:51:43;17.40;62.50
42135;DHT22;28312;43.460;11.810;2023-05-29T05:55:47;17.70;62.40
42135;DHT22;28312;43.460;11.810;2023-05-29T05:59:51;18.00;62.30
42135;DHT22;28312;43.460;11.810;2023-05-29T06:03:54;18.30;62.10
42135;DHT22;28312;43.460;11.810;2023-05-29T06:07:58;18.60;61.90
42135;DHT22;28312;43.460;11.810;2023-05-29T06:12:05;18.80;61.80
42135;DHT22;28312;43.460;11.810;2023-05-29T06:16:13;19.10;61.70
42135;DHT22;28312;43.460;11.810;2023-05-29T06:20:17;19.40;61.60
42135;DHT22;28312;43.460;11.810;2023-05-29T06:24:21;19.60;61.50
42135;DHT22;28312;43.460;11.810;2023-05-29T06:28:25;19.90;61.40
42135;DHT22;28312;43.460;11.810;2023-05-29T06:32:29;20.20;61.30
42135;DHT22;28312;43.460;11.810;2023-05-29T06:36:34;20.40;61.10
42135;DHT22;28312;43.460;11.810;2023-05-29T06:40:38;20.70;60.80
42135;DHT22;28312;43.460;11.810;2023-05-29T06:44:41;20.80;60.80
42135;DHT22;28312;43.460;11.810;2023-05-29T06:48:45;21.10;60.70
42135;DHT22;28312;43.460;11.810;2023-05-29T06:52:48;21.30;60.50
42135;DHT22;28312;43.460;11.810;2023-05-29T06:57:02;21.60;60.40
42135;DHT22;28312;43.460;11.810;2023-05-29T07:01:13;21.80;60.30
42135;DHT22;28312;43.460;11.810;2023-05-29T07:05:38;22.10;60.30
42135;DHT22;28312;43.460;11.810;2023-05-29T07:09:42;22.40;60.10
42135;DHT22;28312;43.460;11.810;2023-05-29T07:13:47;22.70;60.00
42135;DHT22;28312;43.460;11.810;2023-05-29T07:17:50;23.00;59.90
42135;DHT22;28312;43.460;11.810;2023-05-29T07:21:59;23.30;59.60
42135;DHT22;28312;43.460;11.810;2023-05-29T07:26:03;23.60;59.30
42135;DHT22;28312;43.460;11.810;2023-05-29T07:30:07;23.70;59.20
42135;DHT22;28312;43.460;11.810;2023-05-29T07:34:12;24.00;59.20
42135;DHT22;28312;43.460;11.810;2023-05-29T07:38:16;24.20;58.90
42135;DHT22;28312;43.460;11.810;2023-05-29T07:42:20;24.50;58.80
42135;DHT22;28312;43.460;11.810;2023-05-29T07:46:23;24.70;58.50
42135;DHT22;28312;43.460;11.810;2023-05-29T07:50:35;24.90;58.40
42135;DHT22;28312;43.460;11.810;2023-05-29T07:54:40;25.10;58.20
42135;DHT22;28312;43.460;11.810;2023-05-29T07:58:47;25.30;58.10
42135;DHT22;28312;43.460;11.810;2023-05-29T08:02:51;25.60;58.00
42135;DHT22;28312;43.460;11.810;2023-05-29T08:07:01;25.70;57.80
42135;DHT22;28312;43.460;11.810;2023-05-29T08:11:06;25.80;57.70
42135;DHT22;28312;43.460;11.810;2023-05-29T08:15:10;26.00;57.50
42135;DHT22;28312;43.460;11.810;2023-05-29T08:19:15;26.10;57.20
42135;DHT22;28312;43.460;11.810;2023-05-29T08:23:19;26.20;57.10
42135;DHT22;28312;43.460;11.810;2023-05-29T08:27:22;26.20;57.00
42135;DHT22;28312;43.460;11.810;2023-05-29T08:31:26;26.30;56.80
42135;DHT22;28312;43.460;11.810;2023-05-29T08:35:30;26.40;56.70
42135;DHT22;28312;43.460;11.810;2023-05-29T08:39:33;26.60;56.60
42135;DHT22;28312;43.460;11.810;2023-05-29T08:43:37;26.70;56.30
42135;DHT22;28312;43.460;11.810;2023-05-29T08:47:44;27.00;56.30
42135;DHT22;28312;43.460;11.810;2023-05-29T08:52:02;27.10;56.20
42135;DHT22;28312;43.460;11.810;2023-05-29T08:56:06;27.30;56.30
42135;DHT22;28312;43.460;11.810;2023-05-29T09:00:11;27.60;56.00
42135;DHT22;28312;43.460;11.810;2023-05-29T09:04:15;27.70;55.50
42135;DHT22;28312;43.460;11.810;2023-05-29T09:08:19;27.80;55.60
42135;DHT22;28312;43.460;11.810;2023-05-29T09:12:24;27.90;55.10
42135;DHT22;28312;43.460;11.810;2023-05-29T09:16:28;27.80;55.00
42135;DHT22;28312;43.460;11.810;2023-05-29T09:20:31;27.90;54.70
42135;DHT22;28312;43.460;11.810;2023-05-29T09:24:36;27.80;54.50
42135;DHT22;28312;43.460;11.810;2023-05-29T09:28:41;27.90;54.70
42135;DHT22;28312;43.460;11.810;2023-05-29T09:32:44;28.00;54.30
42135;DHT22;28312;43.460;11.810;2023-05-29T09:37:03;28.10;54.10
42135;DHT22;28312;43.460;11.810;2023-05-29T09:41:11;28.30;54.10
42135;DHT22;28312;43.460;11.810;2023-05-29T09:45:17;28.40;53.60
42135;DHT22;28312;43.460;11.810;2023-05-29T09:49:22;28.50;53.50
42135;DHT22;28312;43.460;11.810;2023-05-29T09:53:26;28.60;52.70
42135;DHT22;28312;43.460;11.810;2023-05-29T09:57:32;28.70;52.70
42135;DHT22;28312;43.460;11.810;2023-05-29T10:01:36;28.90;52.70
42135;DHT22;28312;43.460;11.810;2023-05-29T10:05:41;29.00;52.30
42135;DHT22;28312;43.460;11.810;2023-05-29T10:09:48;29.10;52.20
42135;DHT22;28312;43.460;11.810;2023-05-29T10:13:57;29.10;51.80
42135;DHT22;28312;43.460;11.810;2023-05-29T10:18:03;29.00;51.40
42135;DHT22;28312;43.460;11.810;2023-05-29T10:22:10;29.10;51.70
42135;DHT22;28312;43.460;11.810;2023-05-29T10:26:36;29.20;51.40
42135;DHT22;28312;43.460;11.810;2023-05-29T10:30:45;29.30;51.40
42135;DHT22;28312;43.460;11.810;2023-05-29T10:39:04;29.40;50.30
42135;DHT22;28312;43.460;11.810;2023-05-29T10:43:08;29.40;50.20
42135;DHT22;28312;43.460;11.810;2023-05-29T10:47:23;29.50;50.30
42135;DHT22;28312;43.460;11.810;2023-05-29T10:51:28;29.60;49.90
42135;DHT22;28312;43.460;11.810;2023-05-29T10:55:39;29.70;50.10
42135;DHT22;28312;43.460;11.810;2023-05-29T10:59:45;29.80;49.70
42135;DHT22;28312;43.460;11.810;2023-05-29T11:03:48;29.90;50.00
42135;DHT22;28312;43.460;11.810;2023-05-29T11:07:57;30.00;49.90
42135;DHT22;28312;43.460;11.810;2023-05-29T11:20:43;30.00;49.50
42135;DHT22;28312;43.460;11.810;2023-05-29T11:24:50;30.10;49.80
42135;DHT22;28312;43.460;11.810;2023-05-29T11:28:58;30.10;49.90
42135;DHT22;28312;43.460;11.810;2023-05-29T11:33:04;30.20;49.00
42135;DHT22;28312;43.460;11.810;2023-05-29T11:37:11;30.30;49.30
42135;DHT22;28312;43.460;11.810;2023-05-29T11:41:17;30.30;48.60
42135;DHT22;28312;43.460;11.810;2023-05-29T11:45:21;29.80;47.90
42135;DHT22;28312;43.460;11.810;2023-05-29T11:53:40;28.90;48.40
42135;DHT22;28312;43.460;11.810;2023-05-29T11:57:48;27.50;47.40
42135;DHT22;28312;43.460;11.810;2023-05-29T12:01:51;24.70;51.80
42135;DHT22;28312;43.460;11.810;2023-05-29T12:05:55;23.10;56.20
42135;DHT22;28312;43.460;11.810;2023-05-29T12:10:13;22.30;59.40
42135;DHT22;28312;43.460;11.810;2023-05-29T12:14:17;21.50;62.30
42135;DHT22;28312;43.460;11.810;2023-05-29T12:18:21;20.80;64.90
42135;DHT22;28312;43.460;11.810;2023-05-29T12:22:35;20.40;67.50
42135;DHT22;28312;43.460;11.810;2023-05-29T12:26:39;20.30;69.50
42135;DHT22;28312;43.460;11.810;2023-05-29T12:30:43;20.40;71.30
42135;DHT22;28312;43.460;11.810;2023-05-29T12:34:49;20.60;72.60
42135;DHT22;28312;43.460;11.810;2023-05-29T12:38:53;20.80;73.30
42135;DHT22;28312;43.460;11.810;2023-05-29T12:47:03;21.50;75.70
42135;DHT22;28312;43.460;11.810;2023-05-29T12:51:06;21.80;76.20
42135;DHT22;28312;43.460;11.810;2023-05-29T12:55:11;22.20;76.50
42135;DHT22;28312;43.460;11.810;2023-05-29T12:59:14;22.50;76.20
42135;DHT22;28312;43.460;11.810;2023-05-29T13:03:18;22.70;76.20
42135;DHT22;28312;43.460;11.810;2023-05-29T13:07:24;23.00;76.40
42135;DHT22;28312;43.460;11.810;2023-05-29T13:11:31;23.30;75.80
42135;DHT22;28312;43.460;11.810;2023-05-29T13:15:34;23.30;75.30
42135;DHT22;28312;43.460;11.810;2023-05-29T13:19:38;23.10;75.30
42135;DHT22;28312;43.460;11.810;2023-05-29T13:23:41;23.00;75.10
42135;DHT22;28312;43.460;11.810;2023-05-29T13:27:46;23.00;75.70
42135;DHT22;28312;43.460;11.810;2023-05-29T13:31:49;23.10;75.50
42135;DHT22;28312;43.460;11.810;2023-05-29T13:35:54;23.20;75.60
42135;DHT22;28312;43.460;11.810;2023-05-29T13:40:00;23.40;75.70
42135;DHT22;28312;43.460;11.810;2023-05-29T13:44:03;23.70;75.90
42135;DHT22;28312;43.460;11.810;2023-05-29T13:48:07;24.20;75.60
42135;DHT22;28312;43.460;11.810;2023-05-29T13:52:10;24.60;75.10
42135;DHT22;28312;43.460;11.810;2023-05-29T13:56:14;24.90;74.50
42135;DHT22;28312;43.460;11.810;2023-05-29T14:00:17;25.00;74.20
42135;DHT22;28312;43.460;11.810;2023-05-29T14:04:22;25.30;74.30
42135;DHT22;28312;43.460;11.810;2023-05-29T14:08:26;25.60;74.20
42135;DHT22;28312;43.460;11.810;2023-05-29T14:12:29;26.00;73.60
42135;DHT22;28312;43.460;11.810;2023-05-29T14:16:33;26.20;73.20
42135;DHT22;28312;43.460;11.810;2023-05-29T14:20:37;26.30;72.80
42135;DHT22;28312;43.460;11.810;2023-05-29T14:24:44;26.20;72.20
42135;DHT22;28312;43.460;11.810;2023-05-29T14:28:47;26.20;71.70
42135;DHT22;28312;43.460;11.810;2023-05-29T14:32:55;26.10;71.80
42135;DHT22;28312;43.460;11.810;2023-05-29T14:36:59;26.10;71.90
42135;DHT22;28312;43.460;11.810;2023-05-29T14:41:02;26.10;71.90
42135;DHT22;28312;43.460;11.810;2023-05-29T14:45:11;26.20;70.70
42135;DHT22;28312;43.460;11.810;2023-05-29T14:49:15;26.10;70.50
42135;DHT22;28312;43.460;11.810;2023-05-29T14:53:18;25.90;70.20
42135;DHT22;28312;43.460;11.810;2023-05-29T14:57:23;25.60;69.40
42135;DHT22;28312;43.460;11.810;2023-05-29T15:01:26;25.40;69.10
42135;DHT22;28312;43.460;11.810;2023-05-29T15:05:31;25.10;68.80
42135;DHT22;28312;43.460;11.810;2023-05-29T15:09:35;24.90;69.30
42135;DHT22;28312;43.460;11.810;2023-05-29T15:13:40;24.80;69.40
42135;DHT22;28312;43.460;11.810;2023-05-29T15:17:44;24.60;69.30
42135;DHT22;28312;43.460;11.810;2023-05-29T15:21:49;24.60;69.40
42135;DHT22;28312;43.460;11.810;2023-05-29T15:25:53;24.60;69.50
42135;DHT22;28312;43.460;11.810;2023-05-29T15:30:08;24.50;69.30
42135;DHT22;28312;43.460;11.810;2023-05-29T15:34:12;24.40;68.90
42135;DHT22;28312;43.460;11.810;2023-05-29T15:38:16;24.30;68.70
42135;DHT22;28312;43.460;11.810;2023-05-29T15:42:19;24.20;68.80
42135;DHT22;28312;43.460;11.810;2023-05-29T15:46:29;24.20;68.80
42135;DHT22;28312;43.460;11.810;2023-05-29T15:50:33;24.20;68.30
42135;DHT22;28312;43.460;11.810;2023-05-29T15:54:37;24.10;67.70
42135;DHT22;28312;43.460;11.810;2023-05-29T15:58:40;24.10;67.30
42135;DHT22;28312;43.460;11.810;2023-05-29T16:02:46;24.00;67.10
42135;DHT22;28312;43.460;11.810;2023-05-29T16:06:49;23.90;66.90
42135;DHT22;28312;43.460;11.810;2023-05-29T16:10:53;23.90;66.70
42135;DHT22;28312;43.460;11.810;2023-05-29T16:14:58;23.80;66.30
42135;DHT22;28312;43.460;11.810;2023-05-29T16:19:02;23.80;65.90
42135;DHT22;28312;43.460;11.810;2023-05-29T16:23:06;23.90;66.00
42135;DHT22;28312;43.460;11.810;2023-05-29T16:27:10;24.10;65.90
42135;DHT22;28312;43.460;11.810;2023-05-29T16:31:13;24.40;65.40
42135;DHT22;28312;43.460;11.810;2023-05-29T16:35:17;24.70;64.70
42135;DHT22;28312;43.460;11.810;2023-05-29T16:39:21;24.80;64.10
42135;DHT22;28312;43.460;11.810;2023-05-29T16:43:25;24.90;63.60
42135;DHT22;28312;43.460;11.810;2023-05-29T16:47:28;24.80;63.30
42135;DHT22;28312;43.460;11.810;2023-05-29T16:51:32;24.90;63.20
42135;DHT22;28312;43.460;11.810;2023-05-29T16:55:36;24.90;63.10
42135;DHT22;28312;43.460;11.810;2023-05-29T16:59:40;25.00;62.80
42135;DHT22;28312;43.460;11.810;2023-05-29T17:03:43;25.10;62.40
42135;DHT22;28312;43.460;11.810;2023-05-29T17:07:47;25.10;62.20
42135;DHT22;28312;43.460;11.810;2023-05-29T17:11:50;25.20;62.00
42135;DHT22;28312;43.460;11.810;2023-05-29T17:15:54;25.20;61.70
42135;DHT22;28312;43.460;11.810;2023-05-29T17:19:58;25.20;61.60
42135;DHT22;28312;43.460;11.810;2023-05-29T17:24:01;25.30;61.50
42135;DHT22;28312;43.460;11.810;2023-05-29T17:28:10;25.20;61.40
42135;DHT22;28312;43.460;11.810;2023-05-29T17:32:13;25.20;61.20
42135;DHT22;28312;43.460;11.810;2023-05-29T17:36:17;25.20;61.00
42135;DHT22;28312;43.460;11.810;2023-05-29T17:40:20;25.10;60.90
42135;DHT22;28312;43.460;11.810;2023-05-29T17:44:25;25.00;60.90
42135;DHT22;28312;43.460;11.810;2023-05-29T17:48:28;24.90;60.70
42135;DHT22;28312;43.460;11.810;2023-05-29T17:52:32;24.90;60.70
42135;DHT22;28312;43.460;11.810;2023-05-29T17:56:39;24.80;60.60
42135;DHT22;28312;43.460;11.810;2023-05-29T18:00:43;24.70;60.50
42135;DHT22;28312;43.460;11.810;2023-05-29T18:04:46;24.60;60.50
42135;DHT22;28312;43.460;11.810;2023-05-29T18:08:54;24.50;60.40
42135;DHT22;28312;43.460;11.810;2023-05-29T18:12:57;24.30;60.50
42135;DHT22;28312;43.460;11.810;2023-05-29T18:17:01;24.10;60.40
42135;DHT22;28312;43.460;11.810;2023-05-29T18:21:05;24.00;60.30
42135;DHT22;28312;43.460;11.810;2023-05-29T18:25:11;23.80;60.30
42135;DHT22;28312;43.460;11.810;2023-05-29T18:29:14;23.50;60.40
42135;DHT22;28312;43.460;11.810;2023-05-29T18:33:18;23.30;60.50
42135;DHT22;28312;43.460;11.810;2023-05-29T18:37:22;22.90;60.60
42135;DHT22;28312;43.460;11.810;2023-05-29T18:41:25;22.70;60.80
42135;DHT22;28312;43.460;11.810;2023-05-29T18:45:29;22.60;60.90
42135;DHT22;28312;43.460;11.810;2023-05-29T18:49:33;22.40;61.00
42135;DHT22;28312;43.460;11.810;2023-05-29T18:53:39;22.30;61.10
42135;DHT22;28312;43.460;11.810;2023-05-29T18:57:48;22.10;61.20
42135;DHT22;28312;43.460;11.810;2023-05-29T19:01:51;22.00;61.30
42135;DHT22;28312;43.460;11.810;2023-05-29T19:05:55;21.90;61.20
42135;DHT22;28312;43.460;11.810;2023-05-29T19:09:59;21.70;61.10
42135;DHT22;28312;43.460;11.810;2023-05-29T19:14:02;21.60;61.10
42135;DHT22;28312;43.460;11.810;2023-05-29T19:18:06;21.40;61.00
42135;DHT22;28312;43.460;11.810;2023-05-29T19:22:11;21.10;61.20
42135;DHT22;28312;43.460;11.810;2023-05-29T19:26:14;20.80;61.40
42135;DHT22;28312;43.460;11.810;2023-05-29T19:30:18;20.60;61.50
42135;DHT22;28312;43.460;11.810;2023-05-29T19:34:21;20.40;61.60
42135;DHT22;28312;43.460;11.810;2023-05-29T19:38:27;20.20;61.70
42135;DHT22;28312;43.460;11.810;2023-05-29T19:42:30;20.00;61.80
42135;DHT22;28312;43.460;11.810;2023-05-29T19:46:35;19.90;61.60
42135;DHT22;28312;43.460;11.810;2023-05-29T19:50:39;19.70;61.70
42135;DHT22;28312;43.460;11.810;2023-05-29T19:54:44;19.40;61.90
42135;DHT22;28312;43.460;11.810;2023-05-29T19:58:48;19.30;62.00
42135;DHT22;28312;43.460;11.810;2023-05-29T20:02:52;19.10;62.20
42135;DHT22;28312;43.460;11.810;2023-05-29T20:06:55;18.90;62.30
42135;DHT22;28312;43.460;11.810;2023-05-29T20:10:59;18.80;62.30
42135;DHT22;28312;43.460;11.810;2023-05-29T20:15:04;18.70;62.50
42135;DHT22;28312;43.460;11.810;2023-05-29T20:19:08;18.40;62.70
42135;DHT22;28312;43.460;11.810;2023-05-29T20:23:11;18.20;62.90
42135;DHT22;28312;43.460;11.810;2023-05-29T20:27:14;18.10;63.00
42135;DHT22;28312;43.460;11.810;2023-05-29T20:31:18;18.00;62.90
42135;DHT22;28312;43.460;11.810;2023-05-29T20:35:23;17.90;63.00
42135;DHT22;28312;43.460;11.810;2023-05-29T20:39:26;17.80;63.20
42135;DHT22;28312;43.460;11.810;2023-05-29T20:43:30;17.60;63.40
42135;DHT22;28312;43.460;11.810;2023-05-29T20:47:38;17.60;63.30
42135;DHT22;28312;43.460;11.810;2023-05-29T20:51:42;17.50;63.20
42135;DHT22;28312;43.460;11.810;2023-05-29T20:55:46;17.40;63.30
42135;DHT22;28312;43.460;11.810;2023-05-29T20:59:50;17.30;63.50
42135;DHT22;28312;43.460;11.810;2023-05-29T21:03:53;17.20;63.80
42135;DHT22;28312;43.460;11.810;2023-05-29T21:07:57;17.10;63.70
42135;DHT22;28312;43.460;11.810;2023-05-29T21:12:00;16.90;64.10
42135;DHT22;28312;43.460;11.810;2023-05-29T21:16:05;16.80;64.00
42135;DHT22;28312;43.460;11.810;2023-05-29T21:20:09;16.60;64.20
42135;DHT22;28312;43.460;11.810;2023-05-29T21:24:14;16.60;64.20
42135;DHT22;28312;43.460;11.810;2023-05-29T21:28:18;16.50;64.50
42135;DHT22;28312;43.460;11.810;2023-05-29T21:32:22;16.40;64.60
42135;DHT22;28312;43.460;11.810;2023-05-29T21:36:25;16.30;64.70
42135;DHT22;28312;43.460;11.810;2023-05-29T21:40:31;16.20;64.80
42135;DHT22;28312;43.460;11.810;2023-05-29T21:44:34;16.20;64.90
42135;DHT22;28312;43.460;11.810;2023-05-29T21:48:38;16.20;64.90
42135;DHT22;28312;43.460;11.810;2023-05-29T21:52:42;16.00;64.90
42135;DHT22;28312;43.460;11.810;2023-05-29T21:56:45;16.00;65.00
42135;DHT22;28312;43.460;11.810;2023-05-29T22:00:49;15.90;65.00
42135;DHT22;28312;43.460;11.810;2023-05-29T22:04:52;15.90;65.10
42135;DHT22;28312;43.460;11.810;2023-05-29T22:08:57;15.80;65.10
42135;DHT22;28312;43.460;11.810;2023-05-29T22:13:01;15.70;65.20
42135;DHT22;28312;43.460;11.810;2023-05-29T22:17:04;15.60;65.30
42135;DHT22;28312;43.460;11.810;2023-05-29T22:21:08;15.40;65.40
42135;DHT22;28312;43.460;11.810;2023-05-29T22:25:12;15.40;65.40
42135;DHT22;28312;43.460;11.810;2023-05-29T22:29:16;15.30;65.50
42135;DHT22;28312;43.460;11.810;2023-05-29T22:33:19;15.20;65.60
42135;DHT22;28312;43.460;11.810;2023-05-29T22:37:23;15.20;65.60
42135;DHT22;28312;43.460;11.810;2023-05-29T22:41:27;15.10;65.70
42135;DHT22;28312;43.460;11.810;2023-05-29T22:45:31;15.10;65.80
42135;DHT22;28312;43.460;11.810;2023-05-29T22:49:35;15.00;65.80
42135;DHT22;28312;43.460;11.810;2023-05-29T22:53:38;14.90;66.00
42135;DHT22;28312;43.460;11.810;2023-05-29T22:57:43;14.80;65.90
42135;DHT22;28312;43.460;11.810;2023-05-29T23:01:47;14.80;66.10
42135;DHT22;28312;43.460;11.810;2023-05-29T23:05:53;14.70;66.10
42135;DHT22;28312;43.460;11.810;2023-05-29T23:09:56;14.70;66.00
42135;DHT22;28312;43.460;11.810;2023-05-29T23:14:00;14.70;66.20
42135;DHT22;28312;43.460;11.810;2023-05-29T23:18:03;14.70;66.20
42135;DHT22;28312;43.460;11.810;2023-05-29T23:22:09;14.70;66.20
42135;DHT22;28312;43.460;11.810;2023-05-29T23:26:12;14.60;66.40
42135;DHT22;28312;43.460;11.810;2023-05-29T23:30:16;14.60;66.40
42135;DHT22;28312;43.460;11.810;2023-05-29T23:34:19;14.60;66.40
42135;DHT22;28312;43.460;11.810;2023-05-29T23:38:23;14.50;66.50
42135;DHT22;28312;43.460;11.810;2023-05-29T23:42:27;14.60;66.40
42135;DHT22;28312;43.460;11.810;2023-05-29T23:46:30;14.50;66.60
42135;DHT22;28312;43.460;11.810;2023-05-29T23:50:34;14.40;66.60
42135;DHT22;28312;43.460;11.810;2023-05-29T23:54:38;14.40;66.70
42135;DHT22;28312;43.460;11.810;2023-05-29T23:58:43;14.40;66.60
